Lameroo, Australia
Current Conditions -  °F | °C
As of 10:00 AM on Sunday 26 Oct 2014 (Local Time) from YPAD Reporting Station
Rain Showers Rain Showers  
Wind Chill: 68°   Ceiling: 13000
Heat Index: 68°   Visibility: 6mi
Dew Point: 55°   Wind: 20mph
Humidity: 64%   Direction: 30°NNE
Pressure: 29.83"   Gusts: NA
Location:  35.33°S, 140.52°E
Report Text: YPAD 260000Z 03017KT 9999 VCSH FEW110 BKN130 BKN250 20/13 Q1010 INTER 0100/0300 VRB30G40KT 5000 TSRA BKN120 SCT100CB
Loading
Personal Weather Stations






























Interactive Weather Map
Tropical Storm Tracking
New forecast layout! Learn more

10-Day Weather Forecast

Advertisements
Track Severe Weather on mobile